sensor_id;sensor_type;location;lat;lon;timestamp;P1;durP1;ratioP1;P2;durP2;ratioP2
23608;SDS011;11982;50.810;4.442;2023-05-20T00:00:19;15.13;;;7.40;;
23608;SDS011;11982;50.810;4.442;2023-05-20T00:02:45;17.33;;;7.28;;
23608;SDS011;11982;50.810;4.442;2023-05-20T00:05:11;19.42;;;7.70;;
23608;SDS011;11982;50.810;4.442;2023-05-20T00:07:36;15.05;;;7.13;;
23608;SDS011;11982;50.810;4.442;2023-05-20T00:10:02;16.17;;;7.38;;
23608;SDS011;11982;50.810;4.442;2023-05-20T00:12:28;17.48;;;8.02;;
23608;SDS011;11982;50.810;4.442;2023-05-20T00:14:53;19.25;;;8.23;;
23608;SDS011;11982;50.810;4.442;2023-05-20T00:17:19;15.15;;;7.43;;
23608;SDS011;11982;50.810;4.442;2023-05-20T00:19:45;15.07;;;7.55;;
23608;SDS011;11982;50.810;4.442;2023-05-20T00:22:10;24.30;;;7.60;;
23608;SDS011;11982;50.810;4.442;2023-05-20T00:24:36;22.15;;;7.90;;
23608;SDS011;11982;50.810;4.442;2023-05-20T00:27:02;18.00;;;8.02;;
23608;SDS011;11982;50.810;4.442;2023-05-20T00:29:27;14.10;;;7.20;;
23608;SDS011;11982;50.810;4.442;2023-05-20T00:31:53;19.55;;;8.20;;
23608;SDS011;11982;50.810;4.442;2023-05-20T00:34:19;17.15;;;8.15;;
23608;SDS011;11982;50.810;4.442;2023-05-20T00:36:44;15.02;;;7.75;;
23608;SDS011;11982;50.810;4.442;2023-05-20T00:39:10;14.07;;;7.68;;
23608;SDS011;11982;50.810;4.442;2023-05-20T00:41:36;14.90;;;7.63;;
23608;SDS011;11982;50.810;4.442;2023-05-20T00:44:03;21.08;;;8.05;;
23608;SDS011;11982;50.810;4.442;2023-05-20T00:46:28;21.67;;;8.32;;
23608;SDS011;11982;50.810;4.442;2023-05-20T00:48:54;17.63;;;8.43;;
23608;SDS011;11982;50.810;4.442;2023-05-20T00:51:20;18.73;;;7.90;;
23608;SDS011;11982;50.810;4.442;2023-05-20T00:53:46;21.52;;;8.32;;
23608;SDS011;11982;50.810;4.442;2023-05-20T00:56:11;16.90;;;9.00;;
23608;SDS011;11982;50.810;4.442;2023-05-20T00:58:38;17.65;;;8.32;;
23608;SDS011;11982;50.810;4.442;2023-05-20T01:01:04;12.63;;;8.30;;
23608;SDS011;11982;50.810;4.442;2023-05-20T01:03:30;18.05;;;8.13;;
23608;SDS011;11982;50.810;4.442;2023-05-20T01:05:56;17.10;;;9.07;;
23608;SDS011;11982;50.810;4.442;2023-05-20T01:08:22;15.27;;;8.15;;
23608;SDS011;11982;50.810;4.442;2023-05-20T01:13:53;12.32;;;8.00;;
23608;SDS011;11982;50.810;4.442;2023-05-20T01:16:21;14.82;;;8.88;;
23608;SDS011;11982;50.810;4.442;2023-05-20T01:18:48;26.65;;;8.93;;
23608;SDS011;11982;50.810;4.442;2023-05-20T01:21:15;21.52;;;8.32;;
23608;SDS011;11982;50.810;4.442;2023-05-20T01:23:42;17.42;;;8.25;;
23608;SDS011;11982;50.810;4.442;2023-05-20T01:26:08;16.38;;;8.98;;
23608;SDS011;11982;50.810;4.442;2023-05-20T01:28:43;13.05;;;8.45;;
23608;SDS011;11982;50.810;4.442;2023-05-20T01:31:14;16.80;;;7.88;;
23608;SDS011;11982;50.810;4.442;2023-05-20T01:33:45;12.38;;;7.60;;
23608;SDS011;11982;50.810;4.442;2023-05-20T01:36:13;14.20;;;7.55;;
23608;SDS011;11982;50.810;4.442;2023-05-20T01:38:39;14.82;;;8.10;;
23608;SDS011;11982;50.810;4.442;2023-05-20T01:41:06;15.57;;;8.00;;
23608;SDS011;11982;50.810;4.442;2023-05-20T01:43:33;14.02;;;8.13;;
23608;SDS011;11982;50.810;4.442;2023-05-20T01:45:59;17.17;;;7.53;;
23608;SDS011;11982;50.810;4.442;2023-05-20T01:48:26;15.45;;;8.13;;
23608;SDS011;11982;50.810;4.442;2023-05-20T01:50:52;15.93;;;7.18;;
23608;SDS011;11982;50.810;4.442;2023-05-20T01:53:18;12.70;;;7.82;;
23608;SDS011;11982;50.810;4.442;2023-05-20T01:55:43;17.27;;;7.50;;
23608;SDS011;11982;50.810;4.442;2023-05-20T01:58:09;9.55;;;7.28;;
23608;SDS011;11982;50.810;4.442;2023-05-20T02:00:35;14.57;;;7.65;;
23608;SDS011;11982;50.810;4.442;2023-05-20T02:03:01;16.77;;;7.93;;
23608;SDS011;11982;50.810;4.442;2023-05-20T02:05:27;11.48;;;7.95;;
23608;SDS011;11982;50.810;4.442;2023-05-20T02:07:54;18.25;;;7.43;;
23608;SDS011;11982;50.810;4.442;2023-05-20T02:10:19;14.18;;;7.90;;
23608;SDS011;11982;50.810;4.442;2023-05-20T02:12:45;12.43;;;6.93;;
23608;SDS011;11982;50.810;4.442;2023-05-20T02:15:13;16.92;;;7.25;;
23608;SDS011;11982;50.810;4.442;2023-05-20T02:17:38;11.60;;;7.13;;
23608;SDS011;11982;50.810;4.442;2023-05-20T02:20:05;14.63;;;7.80;;
23608;SDS011;11982;50.810;4.442;2023-05-20T02:22:31;11.07;;;6.30;;
23608;SDS011;11982;50.810;4.442;2023-05-20T02:24:57;14.90;;;6.80;;
23608;SDS011;11982;50.810;4.442;2023-05-20T02:27:23;13.68;;;6.93;;
23608;SDS011;11982;50.810;4.442;2023-05-20T02:29:48;12.88;;;7.30;;
23608;SDS011;11982;50.810;4.442;2023-05-20T02:32:14;10.27;;;6.78;;
23608;SDS011;11982;50.810;4.442;2023-05-20T02:34:46;12.68;;;6.93;;
23608;SDS011;11982;50.810;4.442;2023-05-20T02:37:12;9.73;;;6.45;;
23608;SDS011;11982;50.810;4.442;2023-05-20T02:39:37;14.07;;;6.65;;
23608;SDS011;11982;50.810;4.442;2023-05-20T02:42:03;10.07;;;6.53;;
23608;SDS011;11982;50.810;4.442;2023-05-20T02:44:29;15.52;;;7.00;;
23608;SDS011;11982;50.810;4.442;2023-05-20T02:46:55;12.63;;;6.75;;
23608;SDS011;11982;50.810;4.442;2023-05-20T02:49:20;12.48;;;6.28;;
23608;SDS011;11982;50.810;4.442;2023-05-20T02:51:46;17.00;;;6.63;;
23608;SDS011;11982;50.810;4.442;2023-05-20T02:54:12;16.13;;;6.97;;
23608;SDS011;11982;50.810;4.442;2023-05-20T02:56:38;16.42;;;6.60;;
23608;SDS011;11982;50.810;4.442;2023-05-20T02:59:04;13.48;;;6.50;;
23608;SDS011;11982;50.810;4.442;2023-05-20T03:01:31;14.27;;;6.57;;
23608;SDS011;11982;50.810;4.442;2023-05-20T03:03:59;13.02;;;6.30;;
23608;SDS011;11982;50.810;4.442;2023-05-20T03:06:25;11.30;;;6.38;;
23608;SDS011;11982;50.810;4.442;2023-05-20T03:08:51;13.23;;;6.45;;
23608;SDS011;11982;50.810;4.442;2023-05-20T03:11:17;12.38;;;6.15;;
23608;SDS011;11982;50.810;4.442;2023-05-20T03:13:42;13.25;;;6.65;;
23608;SDS011;11982;50.810;4.442;2023-05-20T03:16:08;11.18;;;6.30;;
23608;SDS011;11982;50.810;4.442;2023-05-20T03:18:36;11.23;;;6.55;;
23608;SDS011;11982;50.810;4.442;2023-05-20T03:21:02;14.45;;;6.53;;
23608;SDS011;11982;50.810;4.442;2023-05-20T03:23:28;14.85;;;6.13;;
23608;SDS011;11982;50.810;4.442;2023-05-20T03:25:54;10.65;;;6.07;;
23608;SDS011;11982;50.810;4.442;2023-05-20T03:28:20;13.35;;;6.90;;
23608;SDS011;11982;50.810;4.442;2023-05-20T03:30:45;13.70;;;7.00;;
23608;SDS011;11982;50.810;4.442;2023-05-20T03:33:11;14.93;;;6.70;;
23608;SDS011;11982;50.810;4.442;2023-05-20T03:35:37;12.77;;;6.55;;
23608;SDS011;11982;50.810;4.442;2023-05-20T03:38:02;19.77;;;7.43;;
23608;SDS011;11982;50.810;4.442;2023-05-20T03:40:28;11.98;;;7.05;;
23608;SDS011;11982;50.810;4.442;2023-05-20T03:42:54;11.82;;;7.38;;
23608;SDS011;11982;50.810;4.442;2023-05-20T03:45:20;19.63;;;8.23;;
23608;SDS011;11982;50.810;4.442;2023-05-20T03:47:45;10.50;;;7.00;;
23608;SDS011;11982;50.810;4.442;2023-05-20T03:50:11;16.05;;;7.15;;
23608;SDS011;11982;50.810;4.442;2023-05-20T03:52:37;14.43;;;7.65;;
23608;SDS011;11982;50.810;4.442;2023-05-20T03:55:04;11.77;;;7.82;;
23608;SDS011;11982;50.810;4.442;2023-05-20T03:57:30;11.32;;;7.07;;
23608;SDS011;11982;50.810;4.442;2023-05-20T03:59:56;16.05;;;7.90;;
23608;SDS011;11982;50.810;4.442;2023-05-20T04:02:22;16.02;;;8.25;;
23608;SDS011;11982;50.810;4.442;2023-05-20T04:04:48;16.95;;;7.78;;
23608;SDS011;11982;50.810;4.442;2023-05-20T04:07:17;15.98;;;7.22;;
23608;SDS011;11982;50.810;4.442;2023-05-20T04:09:43;16.00;;;7.75;;
23608;SDS011;11982;50.810;4.442;2023-05-20T04:12:08;17.80;;;7.25;;
23608;SDS011;11982;50.810;4.442;2023-05-20T04:14:35;12.48;;;7.35;;
23608;SDS011;11982;50.810;4.442;2023-05-20T04:17:04;12.68;;;7.45;;
23608;SDS011;11982;50.810;4.442;2023-05-20T04:19:30;19.30;;;7.85;;
23608;SDS011;11982;50.810;4.442;2023-05-20T04:21:56;14.02;;;7.72;;
23608;SDS011;11982;50.810;4.442;2023-05-20T04:24:21;16.75;;;7.50;;
23608;SDS011;11982;50.810;4.442;2023-05-20T04:26:50;18.30;;;7.60;;
23608;SDS011;11982;50.810;4.442;2023-05-20T04:29:17;13.27;;;7.55;;
23608;SDS011;11982;50.810;4.442;2023-05-20T04:31:46;18.38;;;7.68;;
23608;SDS011;11982;50.810;4.442;2023-05-20T04:34:12;12.35;;;6.93;;
23608;SDS011;11982;50.810;4.442;2023-05-20T04:36:46;22.40;;;7.65;;
23608;SDS011;11982;50.810;4.442;2023-05-20T04:39:13;13.88;;;6.95;;
23608;SDS011;11982;50.810;4.442;2023-05-20T04:41:39;18.05;;;7.63;;
23608;SDS011;11982;50.810;4.442;2023-05-20T04:44:05;13.80;;;7.35;;
23608;SDS011;11982;50.810;4.442;2023-05-20T04:46:31;15.68;;;6.90;;
23608;SDS011;11982;50.810;4.442;2023-05-20T04:48:57;17.27;;;7.22;;
23608;SDS011;11982;50.810;4.442;2023-05-20T04:51:23;17.35;;;7.05;;
23608;SDS011;11982;50.810;4.442;2023-05-20T04:53:49;13.23;;;6.53;;
23608;SDS011;11982;50.810;4.442;2023-05-20T04:56:15;14.05;;;7.20;;
23608;SDS011;11982;50.810;4.442;2023-05-20T04:58:41;17.08;;;7.22;;
23608;SDS011;11982;50.810;4.442;2023-05-20T05:01:06;10.15;;;6.55;;
23608;SDS011;11982;50.810;4.442;2023-05-20T05:03:32;14.60;;;7.15;;
23608;SDS011;11982;50.810;4.442;2023-05-20T05:05:58;15.13;;;7.10;;
23608;SDS011;11982;50.810;4.442;2023-05-20T05:08:24;14.52;;;6.85;;
23608;SDS011;11982;50.810;4.442;2023-05-20T05:10:52;16.45;;;7.30;;
23608;SDS011;11982;50.810;4.442;2023-05-20T05:13:18;14.60;;;7.05;;
23608;SDS011;11982;50.810;4.442;2023-05-20T05:15:44;17.13;;;7.15;;
23608;SDS011;11982;50.810;4.442;2023-05-20T05:18:10;12.48;;;7.00;;
23608;SDS011;11982;50.810;4.442;2023-05-20T05:20:35;16.33;;;7.20;;
23608;SDS011;11982;50.810;4.442;2023-05-20T05:23:01;13.02;;;7.28;;
23608;SDS011;11982;50.810;4.442;2023-05-20T05:25:27;15.23;;;7.57;;
23608;SDS011;11982;50.810;4.442;2023-05-20T05:27:52;13.75;;;7.70;;
23608;SDS011;11982;50.810;4.442;2023-05-20T05:30:19;13.43;;;7.95;;
23608;SDS011;11982;50.810;4.442;2023-05-20T05:32:46;14.82;;;7.32;;
23608;SDS011;11982;50.810;4.442;2023-05-20T05:35:11;13.65;;;7.25;;
23608;SDS011;11982;50.810;4.442;2023-05-20T05:37:37;13.52;;;7.32;;
23608;SDS011;11982;50.810;4.442;2023-05-20T05:40:03;17.15;;;7.03;;
23608;SDS011;11982;50.810;4.442;2023-05-20T05:42:29;16.15;;;7.55;;
23608;SDS011;11982;50.810;4.442;2023-05-20T05:44:54;16.10;;;7.40;;
23608;SDS011;11982;50.810;4.442;2023-05-20T05:47:20;14.60;;;7.72;;
23608;SDS011;11982;50.810;4.442;2023-05-20T05:49:46;16.95;;;7.45;;
23608;SDS011;11982;50.810;4.442;2023-05-20T05:52:12;16.33;;;7.28;;
23608;SDS011;11982;50.810;4.442;2023-05-20T05:54:37;16.35;;;7.80;;
23608;SDS011;11982;50.810;4.442;2023-05-20T05:57:04;13.65;;;7.50;;
23608;SDS011;11982;50.810;4.442;2023-05-20T05:59:29;19.55;;;7.85;;
23608;SDS011;11982;50.810;4.442;2023-05-20T06:01:55;14.40;;;7.80;;
23608;SDS011;11982;50.810;4.442;2023-05-20T06:04:21;13.88;;;7.35;;
23608;SDS011;11982;50.810;4.442;2023-05-20T06:06:47;13.50;;;7.00;;
23608;SDS011;11982;50.810;4.442;2023-05-20T06:09:13;18.30;;;7.18;;
23608;SDS011;11982;50.810;4.442;2023-05-20T06:11:39;12.98;;;7.40;;
23608;SDS011;11982;50.810;4.442;2023-05-20T06:14:06;13.50;;;7.55;;
23608;SDS011;11982;50.810;4.442;2023-05-20T06:16:31;14.20;;;7.53;;
23608;SDS011;11982;50.810;4.442;2023-05-20T06:18:57;16.40;;;7.80;;
23608;SDS011;11982;50.810;4.442;2023-05-20T06:21:23;15.73;;;7.32;;
23608;SDS011;11982;50.810;4.442;2023-05-20T06:23:48;10.90;;;7.30;;
23608;SDS011;11982;50.810;4.442;2023-05-20T06:26:14;18.00;;;7.57;;
23608;SDS011;11982;50.810;4.442;2023-05-20T06:28:40;11.38;;;6.70;;
23608;SDS011;11982;50.810;4.442;2023-05-20T06:31:06;11.88;;;7.60;;
23608;SDS011;11982;50.810;4.442;2023-05-20T06:33:32;16.67;;;7.30;;
23608;SDS011;11982;50.810;4.442;2023-05-20T06:35:58;9.40;;;6.25;;
23608;SDS011;11982;50.810;4.442;2023-05-20T06:38:25;9.52;;;6.75;;
23608;SDS011;11982;50.810;4.442;2023-05-20T06:40:51;11.48;;;6.70;;
23608;SDS011;11982;50.810;4.442;2023-05-20T06:43:17;13.40;;;7.45;;
23608;SDS011;11982;50.810;4.442;2023-05-20T06:45:43;16.38;;;7.15;;
23608;SDS011;11982;50.810;4.442;2023-05-20T06:48:09;17.70;;;7.47;;
23608;SDS011;11982;50.810;4.442;2023-05-20T06:50:35;14.82;;;7.18;;
23608;SDS011;11982;50.810;4.442;2023-05-20T06:53:01;12.10;;;6.75;;
23608;SDS011;11982;50.810;4.442;2023-05-20T06:55:26;11.38;;;6.50;;
23608;SDS011;11982;50.810;4.442;2023-05-20T06:57:52;14.73;;;7.10;;
23608;SDS011;11982;50.810;4.442;2023-05-20T07:00:18;9.93;;;6.00;;
23608;SDS011;11982;50.810;4.442;2023-05-20T07:02:44;9.98;;;6.13;;
23608;SDS011;11982;50.810;4.442;2023-05-20T07:05:10;11.25;;;6.78;;
23608;SDS011;11982;50.810;4.442;2023-05-20T07:07:36;15.40;;;7.18;;
23608;SDS011;11982;50.810;4.442;2023-05-20T07:10:01;12.25;;;6.57;;
23608;SDS011;11982;50.810;4.442;2023-05-20T07:12:29;12.07;;;6.95;;
23608;SDS011;11982;50.810;4.442;2023-05-20T07:14:56;12.15;;;6.35;;
23608;SDS011;11982;50.810;4.442;2023-05-20T07:17:22;12.00;;;6.95;;
23608;SDS011;11982;50.810;4.442;2023-05-20T07:19:48;9.93;;;6.32;;
23608;SDS011;11982;50.810;4.442;2023-05-20T07:22:14;11.70;;;6.47;;
23608;SDS011;11982;50.810;4.442;2023-05-20T07:24:39;9.80;;;5.72;;
23608;SDS011;11982;50.810;4.442;2023-05-20T07:27:05;11.25;;;6.25;;
23608;SDS011;11982;50.810;4.442;2023-05-20T07:29:31;11.23;;;5.70;;
23608;SDS011;11982;50.810;4.442;2023-05-20T07:31:56;11.07;;;6.50;;
23608;SDS011;11982;50.810;4.442;2023-05-20T07:34:22;11.20;;;6.53;;
23608;SDS011;11982;50.810;4.442;2023-05-20T07:36:48;13.65;;;7.50;;
23608;SDS011;11982;50.810;4.442;2023-05-20T07:39:15;10.23;;;5.85;;
23608;SDS011;11982;50.810;4.442;2023-05-20T07:41:41;9.32;;;5.90;;
23608;SDS011;11982;50.810;4.442;2023-05-20T07:44:06;10.00;;;5.95;;
23608;SDS011;11982;50.810;4.442;2023-05-20T07:46:33;10.85;;;5.97;;
23608;SDS011;11982;50.810;4.442;2023-05-20T07:48:58;12.40;;;5.47;;
23608;SDS011;11982;50.810;4.442;2023-05-20T07:51:24;11.02;;;5.60;;
23608;SDS011;11982;50.810;4.442;2023-05-20T07:53:50;12.35;;;5.40;;
23608;SDS011;11982;50.810;4.442;2023-05-20T07:56:15;9.27;;;5.45;;
23608;SDS011;11982;50.810;4.442;2023-05-20T07:58:41;14.20;;;5.75;;
23608;SDS011;11982;50.810;4.442;2023-05-20T08:01:07;10.85;;;5.35;;
23608;SDS011;11982;50.810;4.442;2023-05-20T08:03:33;10.32;;;5.70;;
23608;SDS011;11982;50.810;4.442;2023-05-20T08:06:01;11.75;;;5.28;;
23608;SDS011;11982;50.810;4.442;2023-05-20T08:08:27;12.23;;;4.97;;
23608;SDS011;11982;50.810;4.442;2023-05-20T08:10:54;17.45;;;5.00;;
23608;SDS011;11982;50.810;4.442;2023-05-20T08:13:20;10.15;;;4.57;;
23608;SDS011;11982;50.810;4.442;2023-05-20T08:15:46;10.68;;;4.90;;
23608;SDS011;11982;50.810;4.442;2023-05-20T08:18:12;13.13;;;5.00;;
23608;SDS011;11982;50.810;4.442;2023-05-20T08:20:41;9.52;;;4.80;;
23608;SDS011;11982;50.810;4.442;2023-05-20T08:23:07;8.73;;;5.00;;
23608;SDS011;11982;50.810;4.442;2023-05-20T08:25:32;6.53;;;4.40;;
23608;SDS011;11982;50.810;4.442;2023-05-20T08:28:01;10.43;;;4.68;;
23608;SDS011;11982;50.810;4.442;2023-05-20T08:30:31;7.45;;;4.43;;
23608;SDS011;11982;50.810;4.442;2023-05-20T08:32:58;8.07;;;4.28;;
23608;SDS011;11982;50.810;4.442;2023-05-20T08:35:24;6.82;;;3.83;;
23608;SDS011;11982;50.810;4.442;2023-05-20T08:37:50;9.13;;;4.20;;
23608;SDS011;11982;50.810;4.442;2023-05-20T08:40:18;7.15;;;4.30;;
23608;SDS011;11982;50.810;4.442;2023-05-20T08:42:45;8.18;;;4.07;;
23608;SDS011;11982;50.810;4.442;2023-05-20T08:45:14;5.40;;;3.80;;
23608;SDS011;11982;50.810;4.442;2023-05-20T08:47:41;8.75;;;3.88;;
23608;SDS011;11982;50.810;4.442;2023-05-20T08:50:08;7.57;;;4.32;;
23608;SDS011;11982;50.810;4.442;2023-05-20T08:52:36;8.57;;;4.03;;
23608;SDS011;11982;50.810;4.442;2023-05-20T08:55:28;13.05;;;3.80;;
23608;SDS011;11982;50.810;4.442;2023-05-20T08:58:01;7.40;;;3.92;;
23608;SDS011;11982;50.810;4.442;2023-05-20T09:00:27;7.22;;;4.38;;
23608;SDS011;11982;50.810;4.442;2023-05-20T09:02:54;7.97;;;4.25;;
23608;SDS011;11982;50.810;4.442;2023-05-20T09:05:20;4.95;;;3.97;;
23608;SDS011;11982;50.810;4.442;2023-05-20T09:07:47;8.18;;;4.15;;
23608;SDS011;11982;50.810;4.442;2023-05-20T09:10:13;7.85;;;4.35;;
23608;SDS011;11982;50.810;4.442;2023-05-20T09:12:38;6.25;;;4.20;;
23608;SDS011;11982;50.810;4.442;2023-05-20T09:15:04;8.05;;;3.78;;
23608;SDS011;11982;50.810;4.442;2023-05-20T09:17:31;7.68;;;3.97;;
23608;SDS011;11982;50.810;4.442;2023-05-20T09:20:01;9.13;;;3.80;;
23608;SDS011;11982;50.810;4.442;2023-05-20T09:22:33;5.43;;;3.90;;
23608;SDS011;11982;50.810;4.442;2023-05-20T09:24:58;6.97;;;4.38;;
23608;SDS011;11982;50.810;4.442;2023-05-20T09:27:24;8.30;;;3.78;;
23608;SDS011;11982;50.810;4.442;2023-05-20T09:29:50;8.38;;;4.10;;
23608;SDS011;11982;50.810;4.442;2023-05-20T09:32:16;8.50;;;4.28;;
23608;SDS011;11982;50.810;4.442;2023-05-20T09:34:43;7.82;;;3.67;;
23608;SDS011;11982;50.810;4.442;2023-05-20T09:37:11;7.97;;;3.67;;
23608;SDS011;11982;50.810;4.442;2023-05-20T09:39:59;12.20;;;3.50;;
23608;SDS011;11982;50.810;4.442;2023-05-20T09:42:48;8.80;;;3.60;;
23608;SDS011;11982;50.810;4.442;2023-05-20T09:45:17;9.15;;;3.67;;
23608;SDS011;11982;50.810;4.442;2023-05-20T09:47:42;9.88;;;3.83;;
23608;SDS011;11982;50.810;4.442;2023-05-20T09:50:10;7.53;;;3.38;;
23608;SDS011;11982;50.810;4.442;2023-05-20T09:52:37;9.25;;;3.20;;
23608;SDS011;11982;50.810;4.442;2023-05-20T09:55:07;8.30;;;3.65;;
23608;SDS011;11982;50.810;4.442;2023-05-20T09:57:36;7.85;;;3.88;;
23608;SDS011;11982;50.810;4.442;2023-05-20T10:00:03;4.68;;;3.63;;
23608;SDS011;11982;50.810;4.442;2023-05-20T10:02:30;7.30;;;3.60;;
23608;SDS011;11982;50.810;4.442;2023-05-20T10:05:00;6.20;;;3.40;;
23608;SDS011;11982;50.810;4.442;2023-05-20T10:07:45;6.82;;;3.60;;
23608;SDS011;11982;50.810;4.442;2023-05-20T10:13:13;11.57;;;3.60;;
23608;SDS011;11982;50.810;4.442;2023-05-20T10:16:00;7.55;;;3.78;;
23608;SDS011;11982;50.810;4.442;2023-05-20T10:21:38;7.95;;;4.25;;
23608;SDS011;11982;50.810;4.442;2023-05-20T10:24:07;9.85;;;3.95;;
23608;SDS011;11982;50.810;4.442;2023-05-20T10:26:34;9.30;;;4.07;;
23608;SDS011;11982;50.810;4.442;2023-05-20T10:29:16;8.43;;;3.80;;
23608;SDS011;11982;50.810;4.442;2023-05-20T10:31:48;8.48;;;4.20;;
23608;SDS011;11982;50.810;4.442;2023-05-20T10:34:17;8.27;;;3.70;;
23608;SDS011;11982;50.810;4.442;2023-05-20T10:41:50;10.45;;;4.47;;
23608;SDS011;11982;50.810;4.442;2023-05-20T10:44:16;7.65;;;4.10;;
23608;SDS011;11982;50.810;4.442;2023-05-20T10:46:41;9.50;;;4.10;;
23608;SDS011;11982;50.810;4.442;2023-05-20T10:49:17;13.40;;;4.47;;
23608;SDS011;11982;50.810;4.442;2023-05-20T10:51:46;8.00;;;3.70;;
23608;SDS011;11982;50.810;4.442;2023-05-20T10:54:12;7.22;;;3.60;;
23608;SDS011;11982;50.810;4.442;2023-05-20T10:56:38;6.40;;;3.95;;
23608;SDS011;11982;50.810;4.442;2023-05-20T10:59:14;8.95;;;4.47;;
23608;SDS011;11982;50.810;4.442;2023-05-20T11:01:40;10.30;;;4.72;;
23608;SDS011;11982;50.810;4.442;2023-05-20T11:04:07;11.95;;;5.88;;
23608;SDS011;11982;50.810;4.442;2023-05-20T11:06:33;9.88;;;5.40;;
23608;SDS011;11982;50.810;4.442;2023-05-20T11:09:05;5.00;;;3.83;;
23608;SDS011;11982;50.810;4.442;2023-05-20T11:11:31;6.20;;;4.00;;
23608;SDS011;11982;50.810;4.442;2023-05-20T11:13:56;9.90;;;4.05;;
23608;SDS011;11982;50.810;4.442;2023-05-20T11:16:22;6.72;;;3.47;;
23608;SDS011;11982;50.810;4.442;2023-05-20T11:18:48;6.78;;;3.67;;
23608;SDS011;11982;50.810;4.442;2023-05-20T11:21:14;6.93;;;3.40;;
23608;SDS011;11982;50.810;4.442;2023-05-20T11:23:40;11.05;;;3.83;;
23608;SDS011;11982;50.810;4.442;2023-05-20T11:26:06;5.70;;;3.72;;
23608;SDS011;11982;50.810;4.442;2023-05-20T11:28:32;6.78;;;3.92;;
23608;SDS011;11982;50.810;4.442;2023-05-20T11:31:00;7.32;;;3.83;;
23608;SDS011;11982;50.810;4.442;2023-05-20T11:33:26;9.52;;;3.80;;
23608;SDS011;11982;50.810;4.442;2023-05-20T11:35:52;8.80;;;4.60;;
23608;SDS011;11982;50.810;4.442;2023-05-20T11:38:18;11.15;;;4.43;;
23608;SDS011;11982;50.810;4.442;2023-05-20T11:40:46;15.02;;;4.30;;
23608;SDS011;11982;50.810;4.442;2023-05-20T11:43:19;10.30;;;4.72;;
23608;SDS011;11982;50.810;4.442;2023-05-20T11:45:46;8.32;;;4.10;;
23608;SDS011;11982;50.810;4.442;2023-05-20T11:48:17;6.60;;;5.15;;
23608;SDS011;11982;50.810;4.442;2023-05-20T11:50:44;9.43;;;5.00;;
23608;SDS011;11982;50.810;4.442;2023-05-20T11:53:17;5.65;;;4.43;;
23608;SDS011;11982;50.810;4.442;2023-05-20T11:55:44;9.57;;;3.97;;
23608;SDS011;11982;50.810;4.442;2023-05-20T11:58:18;12.40;;;4.20;;
23608;SDS011;11982;50.810;4.442;2023-05-20T12:00:45;7.22;;;4.15;;
23608;SDS011;11982;50.810;4.442;2023-05-20T12:03:11;8.63;;;3.60;;
23608;SDS011;11982;50.810;4.442;2023-05-20T12:05:37;6.13;;;4.55;;
23608;SDS011;11982;50.810;4.442;2023-05-20T12:08:03;9.90;;;3.90;;
23608;SDS011;11982;50.810;4.442;2023-05-20T12:10:30;11.35;;;4.15;;
23608;SDS011;11982;50.810;4.442;2023-05-20T12:12:56;8.18;;;3.65;;
23608;SDS011;11982;50.810;4.442;2023-05-20T12:15:22;7.38;;;4.20;;
23608;SDS011;11982;50.810;4.442;2023-05-20T12:17:48;9.57;;;3.63;;
23608;SDS011;11982;50.810;4.442;2023-05-20T12:20:18;7.30;;;3.55;;
23608;SDS011;11982;50.810;4.442;2023-05-20T12:22:47;6.07;;;3.20;;
23608;SDS011;11982;50.810;4.442;2023-05-20T12:25:14;5.18;;;3.38;;
23608;SDS011;11982;50.810;4.442;2023-05-20T12:27:41;4.68;;;3.38;;
23608;SDS011;11982;50.810;4.442;2023-05-20T12:30:08;6.78;;;4.10;;
23608;SDS011;11982;50.810;4.442;2023-05-20T12:32:35;8.68;;;4.20;;
23608;SDS011;11982;50.810;4.442;2023-05-20T12:35:01;11.02;;;3.75;;
23608;SDS011;11982;50.810;4.442;2023-05-20T12:37:27;7.15;;;3.72;;
23608;SDS011;11982;50.810;4.442;2023-05-20T12:39:53;4.03;;;3.17;;
23608;SDS011;11982;50.810;4.442;2023-05-20T12:42:19;7.57;;;3.90;;
23608;SDS011;11982;50.810;4.442;2023-05-20T12:44:44;5.13;;;3.58;;
23608;SDS011;11982;50.810;4.442;2023-05-20T12:47:10;4.32;;;3.50;;
23608;SDS011;11982;50.810;4.442;2023-05-20T12:49:36;5.75;;;3.22;;
23608;SDS011;11982;50.810;4.442;2023-05-20T12:52:01;5.30;;;3.45;;
23608;SDS011;11982;50.810;4.442;2023-05-20T12:54:27;5.30;;;3.80;;
23608;SDS011;11982;50.810;4.442;2023-05-20T12:56:53;5.80;;;3.80;;
23608;SDS011;11982;50.810;4.442;2023-05-20T12:59:19;3.97;;;3.45;;
23608;SDS011;11982;50.810;4.442;2023-05-20T13:01:45;13.18;;;7.95;;
23608;SDS011;11982;50.810;4.442;2023-05-20T13:04:11;32.50;;;16.73;;
23608;SDS011;11982;50.810;4.442;2023-05-20T13:06:37;7.90;;;4.05;;
23608;SDS011;11982;50.810;4.442;2023-05-20T13:09:02;8.48;;;3.88;;
23608;SDS011;11982;50.810;4.442;2023-05-20T13:11:28;8.35;;;3.67;;
23608;SDS011;11982;50.810;4.442;2023-05-20T13:13:54;4.97;;;3.70;;
23608;SDS011;11982;50.810;4.442;2023-05-20T13:16:23;15.70;;;8.73;;
23608;SDS011;11982;50.810;4.442;2023-05-20T13:18:49;9.18;;;3.40;;
23608;SDS011;11982;50.810;4.442;2023-05-20T13:21:16;3.95;;;3.53;;
23608;SDS011;11982;50.810;4.442;2023-05-20T13:23:42;4.47;;;3.60;;
23608;SDS011;11982;50.810;4.442;2023-05-20T13:26:08;6.63;;;3.88;;
23608;SDS011;11982;50.810;4.442;2023-05-20T13:28:34;4.53;;;3.65;;
23608;SDS011;11982;50.810;4.442;2023-05-20T13:31:01;16.70;;;11.27;;
23608;SDS011;11982;50.810;4.442;2023-05-20T13:33:28;9.77;;;5.85;;
23608;SDS011;11982;50.810;4.442;2023-05-20T13:35:54;23.77;;;13.52;;
23608;SDS011;11982;50.810;4.442;2023-05-20T13:38:20;9.90;;;7.70;;
23608;SDS011;11982;50.810;4.442;2023-05-20T13:40:46;12.10;;;6.13;;
23608;SDS011;11982;50.810;4.442;2023-05-20T13:43:12;11.43;;;6.57;;
23608;SDS011;11982;50.810;4.442;2023-05-20T13:45:38;4.88;;;3.83;;
23608;SDS011;11982;50.810;4.442;2023-05-20T13:48:04;7.85;;;4.28;;
23608;SDS011;11982;50.810;4.442;2023-05-20T13:50:30;8.65;;;4.00;;
23608;SDS011;11982;50.810;4.442;2023-05-20T13:52:55;6.40;;;4.07;;
23608;SDS011;11982;50.810;4.442;2023-05-20T13:55:21;4.18;;;3.00;;
23608;SDS011;11982;50.810;4.442;2023-05-20T13:57:47;7.40;;;3.83;;
23608;SDS011;11982;50.810;4.442;2023-05-20T14:00:12;6.32;;;3.58;;
23608;SDS011;11982;50.810;4.442;2023-05-20T14:02:38;7.30;;;3.72;;
23608;SDS011;11982;50.810;4.442;2023-05-20T14:05:05;6.82;;;3.58;;
23608;SDS011;11982;50.810;4.442;2023-05-20T14:07:31;6.82;;;3.28;;
23608;SDS011;11982;50.810;4.442;2023-05-20T14:09:57;5.75;;;3.25;;
23608;SDS011;11982;50.810;4.442;2023-05-20T14:12:23;9.30;;;3.40;;
23608;SDS011;11982;50.810;4.442;2023-05-20T14:14:49;12.40;;;3.22;;
23608;SDS011;11982;50.810;4.442;2023-05-20T14:17:14;4.40;;;3.03;;
23608;SDS011;11982;50.810;4.442;2023-05-20T14:19:42;4.35;;;3.03;;
23608;SDS011;11982;50.810;4.442;2023-05-20T14:22:08;7.00;;;3.00;;
23608;SDS011;11982;50.810;4.442;2023-05-20T14:24:36;6.22;;;3.40;;
23608;SDS011;11982;50.810;4.442;2023-05-20T14:27:01;5.05;;;3.45;;
23608;SDS011;11982;50.810;4.442;2023-05-20T14:29:27;5.80;;;3.35;;
23608;SDS011;11982;50.810;4.442;2023-05-20T14:31:53;5.80;;;3.13;;
23608;SDS011;11982;50.810;4.442;2023-05-20T14:34:18;4.45;;;2.85;;
23608;SDS011;11982;50.810;4.442;2023-05-20T14:36:44;4.30;;;3.70;;
23608;SDS011;11982;50.810;4.442;2023-05-20T14:39:10;4.97;;;3.28;;
23608;SDS011;11982;50.810;4.442;2023-05-20T14:41:36;4.63;;;3.65;;
23608;SDS011;11982;50.810;4.442;2023-05-20T14:44:01;7.60;;;3.50;;
23608;SDS011;11982;50.810;4.442;2023-05-20T14:46:27;10.40;;;3.70;;
23608;SDS011;11982;50.810;4.442;2023-05-20T14:48:53;4.20;;;3.10;;
23608;SDS011;11982;50.810;4.442;2023-05-20T14:51:18;4.72;;;3.65;;